Cape Romanzof LRRS, AK

7:05 AM AKDT on July 22, 2014 (GMT -0800)
Hooper Bay (PAHP) Elev 16 ft | 61.52 °N, 166.15 °W | Change Station

Current weather conditions updated 9 minutes ago

Overcast
Overcast
48 °F
Feels Like 48 °F
N
6
Wind Variable Wind from WNW

Today is forecast to be Cooler than yesterday. Light rain and fog.

Today
High -- | Low -- °F
--% Chance of Precip.
Yesterday
High -- | Low -- °F
Precip. -- in
6:06 AM 0:12 AM
Waning Crescent, 17% visible
Pressure 29.83 in
Visibility 1.5 miles
Clouds Overcast 200 ft
Dew Point 1 °F
Humidity 15%
Rainfall 0.00 in
Snow Depth Not available.
UV 0 out of 12
Pollen Not available.
Air Quality Not available.
Flu Activity Sporadic
METAR PAHP 221456Z 29005KT 1 1/2SM OVC002 09/M17 A2983 RMK AO1 57007

More Conditions Fewer Conditions

Pressure 29.83 in
Visibility 1.5 miles
Clouds Overcast 200 ft
Dew Point 1 °F
Humidity 15%
Rainfall 0.00 in
Snow Depth Not available.
UV 0 out of 12
Pollen Not available.
Air Quality Not available.
Flu Activity Sporadic
METAR PAHP 221456Z 29005KT 1 1/2SM OVC002 09/M17 A2983 RMK AO1 57007

More Conditions Fewer Conditions

10-Day Weather Forecast

LIGHTNING

Thunderstorms are forecast for your area. Cloud conditions might be right for producing strikes in the next few days, though lightning itself cannot be forecasted.

Lightning is a visible electrical discharge produced by a thunderstorm, based on the build up of oppositely charged particles within a cloud and from cloud to ground.

Know how to stay safe in a lightning storm.

Check out these Lightning WunderPhotos!

Almanac

Astronomy

Jul. 22, 2014 Rise Set
Actual Time 6:06 AM AKDT 12:12 AM AKDT
Civil Twilight 4:41 AM AKDT 1:35 AM AKDT
Nautical Twilight Sun does not rise Sun does not rise
Astronomical Twilight Sun does not rise Sun does not rise
Moon 3:06 AM AKDT 8:50 PM AKDT
Length of Visible Light 20h 53m
Length of Day
18h 05m
Tomorrow will be 4m 59s shorter.
Waning Crescent, 17% of the Moon is Illuminated
Today
Waning Crescent
Jul 26
New
Aug 3
First Quarter
Aug 10
Full
Aug 17
Last Quarter

Today's Extremes

State Highs State Lows

Community

WunderPhotos

Upload Photos

1,736,257 photos uploaded!

Nearby

Snow Depth

Station Depth Elevation
Rocky Point 1 in 500 ft
Mcneil Canyon 1 in 1320 ft
Port Graham 0 in 300 ft
Susitna Valley High 2 in 375 ft
Point Mackenzie 1 in 200 ft

Earthquake Activity

City Distance Mag. Time & Date
No recent earthquake activity has been reported nearby.
Minimum magnitude displayed is 2.5.

Coastal Water Temperatures

Place Temperature
No Stations Reporting

Nearby Weather Stations

There are no personal weather stations in this area.